Rechercher aéroport 
image banner adimage banner adimage banner ad
image banner ad

CL96 - Vaca Valley Hospital

Situé à Vacaville, United States

ICAO - CL96, IATA -

Données fournies par Airmate  

Information générale

Coordonnées: N38°21'19" W121°57'4"
Élévation : 110 feet MSL.
Variation magnétique : 16° East
Voir autres Aéroports à California

Données opérationnelles

Special qualification required
Heure actuelle UTC:
Heure actuelle locale:
Météo à : KVCB - Nut Tree ( 3 km )
METAR: KVCB 262153Z AUTO 21013G22KT 10SM CLR 26/12 A2984 RMK AO2 SLP101 T02610122
Voir NOTAMs / SUP AIP / TFR affectant cet aéroport [VIEW]
Fréquences de communication: [VIEW]

Pistes:

Coordonnées de l'aéroport

Adresse: Vacaville United States

Vue satellite de CL96